Time;durP1;ratioP1;P1;durP2;ratioP2;P2;SDS_P1;SDS_P2;PMS_P1;PMS_P2;Temp;Humidity;BMP_temperature;BMP_pressure;BME280_temperature;BME280_humidity;BME280_pressure;Samples;Min_cycle;Max_cycle;Signal;HPM_P1;HPM_P2
2022/11/21 00:00:49;;;;;;;31.92;24.55;;;2.00;99.90;;;;;;5076471;28;20053;-74
2022/11/21 00:03:14;;;;;;;;;;;2.00;99.90;;;;;;5117353;28;20048;-74
2022/11/21 00:05:48;;;;;;;32.40;23.05;;;2.00;99.90;;;;;;5077744;28;20271;-74
2022/11/21 00:08:19;;;;;;;29.20;22.60;;;2.00;99.90;;;;;;5080902;28;20128;-74
2022/11/21 00:10:45;;;;;;;33.78;24.33;;;2.00;99.90;;;;;;5111719;27;20044;-74
2022/11/21 00:13:16;;;;;;;33.17;25.00;;;2.00;99.90;;;;;;5082879;28;20519;-73
2022/11/21 00:15:42;;;;;;;29.48;23.50;;;2.00;99.90;;;;;;5084368;28;20070;-74
2022/11/21 00:18:10;;;;;;;30.17;23.17;;;2.00;99.90;;;;;;5092943;28;20065;-73
2022/11/21 00:20:36;;;;;;;31.00;23.98;;;2.00;99.90;;;;;;5083111;28;20040;-74
2022/11/21 00:23:02;;;;;;;31.10;24.52;;;2.00;99.90;;;;;;5078149;28;20048;-73
2022/11/21 00:25:28;;;;;;;31.25;25.30;;;2.00;99.90;;;;;;5084595;28;20645;-74
2022/11/21 00:27:53;;;;;;;36.75;23.33;;;2.10;99.90;;;;;;5085999;28;20058;-74
2022/11/21 00:30:19;;;;;;;31.02;24.33;;;2.10;99.90;;;;;;5078196;28;20642;-74
2022/11/21 00:32:45;;;;;;;28.98;23.02;;;2.10;99.90;;;;;;5087929;28;20036;-74
2022/11/21 00:35:10;;;;;;;31.42;24.05;;;2.10;99.90;;;;;;5085480;28;20453;-74
2022/11/21 00:37:36;;;;;;;32.33;24.80;;;2.10;99.90;;;;;;5116979;27;20041;-73
2022/11/21 00:40:02;;;;;;;29.70;23.50;;;2.10;99.90;;;;;;5089509;28;20044;-74
2022/11/21 00:42:28;;;;;;;32.20;24.20;;;2.10;99.90;;;;;;5081036;28;20039;-73
2022/11/21 00:44:53;;;;;;;29.23;22.90;;;2.10;99.90;;;;;;5085741;28;20036;-74
2022/11/21 00:47:19;;;;;;;33.05;23.95;;;2.10;99.90;;;;;;5076265;28;20163;-73
2022/11/21 00:49:45;;;;;;;33.28;24.00;;;2.10;99.90;;;;;;5076861;28;20040;-74
2022/11/21 00:52:10;;;;;;;32.00;24.25;;;2.10;99.90;;;;;;5086157;28;20047;-74
2022/11/21 00:54:36;;;;;;;29.25;23.40;;;2.10;99.90;;;;;;5118265;27;20048;-74
2022/11/21 00:57:02;;;;;;;33.83;25.08;;;2.10;99.90;;;;;;5084366;28;20206;-74
2022/11/21 00:59:27;;;;;;;30.50;24.48;;;2.10;99.90;;;;;;5111347;27;20119;-74
2022/11/21 01:01:53;;;;;;;33.70;24.60;;;2.00;99.90;;;;;;5080794;28;20044;-75
2022/11/21 01:04:19;;;;;;;32.38;24.70;;;2.10;99.90;;;;;;5081716;28;20108;-74
2022/11/21 01:06:44;;;;;;;31.35;23.65;;;2.10;99.90;;;;;;5086219;28;20054;-74
2022/11/21 01:09:10;;;;;;;30.70;24.52;;;2.00;99.90;;;;;;5089347;28;20155;-74
2022/11/21 01:11:36;;;;;;;33.58;24.70;;;2.00;99.90;;;;;;5083590;28;20043;-73
2022/11/21 01:14:03;;;;;;;31.05;24.33;;;2.00;99.90;;;;;;5087371;28;20036;-73
2022/11/21 01:16:29;;;;;;;29.70;23.60;;;2.10;99.90;;;;;;5087406;28;20047;-73
2022/11/21 01:18:56;;;;;;;31.98;24.02;;;2.10;99.90;;;;;;5084454;28;20155;-73
2022/11/21 01:21:27;;;;;;;31.23;24.85;;;2.10;99.90;;;;;;5083122;28;20130;-73
2022/11/21 01:23:53;;;;;;;33.03;24.52;;;2.10;99.90;;;;;;5087793;28;20044;-73
2022/11/21 01:26:21;;;;;;;30.00;24.15;;;2.10;99.90;;;;;;5086823;28;20129;-73
2022/11/21 01:28:47;;;;;;;31.23;24.77;;;2.00;99.90;;;;;;5080724;28;20040;-73
2022/11/21 01:31:16;;;;;;;33.90;24.63;;;2.10;99.90;;;;;;5076238;28;20756;-74
2022/11/21 01:33:42;;;;;;;29.77;23.67;;;2.00;99.90;;;;;;5083076;28;20040;-73
2022/11/21 01:36:20;;;;;;;32.08;24.73;;;2.00;99.90;;;;;;5078355;28;20066;-73
2022/11/21 01:38:48;;;;;;;31.33;24.67;;;2.10;99.90;;;;;;5079300;28;20118;-73
2022/11/21 01:41:20;;;;;;;32.03;25.73;;;2.10;99.90;;;;;;5084189;28;20068;-73
2022/11/21 01:43:49;;;;;;;36.75;25.10;;;2.10;99.90;;;;;;5075184;28;20039;-73
2022/11/21 01:46:16;;;;;;;33.17;25.38;;;2.10;99.90;;;;;;5077813;28;20037;-73
2022/11/21 01:48:59;;;;;;;30.95;23.92;;;2.10;99.90;;;;;;5078838;28;20043;-73
2022/11/21 01:51:32;;;;;;;34.00;25.70;;;2.10;99.90;;;;;;5080502;28;20054;-73
2022/11/21 01:54:10;;;;;;;31.73;24.85;;;2.10;99.90;;;;;;5085234;28;20140;-74
2022/11/21 01:56:51;;;;;;;31.75;25.35;;;2.10;99.90;;;;;;5078794;28;20723;-73
2022/11/21 01:59:31;;;;;;;32.97;26.15;;;2.10;99.90;;;;;;5083947;28;20078;-73
2022/11/21 02:01:59;;;;;;;33.60;26.80;;;2.10;99.90;;;;;;5078433;28;20534;-73
2022/11/21 02:04:29;;;;;;;33.42;25.33;;;2.10;99.90;;;;;;5075684;28;20543;-73
2022/11/21 02:06:55;;;;;;;33.22;26.48;;;2.10;99.90;;;;;;5085442;28;20040;-73
2022/11/21 02:09:21;;;;;;;33.35;25.45;;;2.00;99.90;;;;;;5084553;28;20035;-73
2022/11/21 02:12:01;;;;;;;34.03;25.75;;;2.00;99.90;;;;;;5082636;28;20040;-73
2022/11/21 02:14:27;;;;;;;35.28;27.13;;;2.10;99.90;;;;;;5084085;28;20044;-73
2022/11/21 02:16:57;;;;;;;33.03;25.50;;;2.10;99.90;;;;;;5085224;28;20487;-73
2022/11/21 02:19:43;;;;;;;34.13;25.83;;;2.10;99.90;;;;;;5084539;28;20044;-73
2022/11/21 02:22:43;;;;;;;34.58;26.08;;;2.10;99.90;;;;;;5077941;28;20043;-73
2022/11/21 02:25:16;;;;;;;34.65;25.77;;;2.00;99.90;;;;;;5085376;28;20120;-73
2022/11/21 02:27:42;;;;;;;32.58;25.65;;;2.00;99.90;;;;;;5114537;27;20043;-73
2022/11/21 02:30:10;;;;;;;33.72;26.58;;;2.00;99.90;;;;;;5071184;28;20093;-73
2022/11/21 02:32:45;;;;;;;31.02;25.17;;;2.00;99.90;;;;;;5068806;28;20070;-73
2022/11/21 02:35:11;;;;;;;31.35;24.67;;;2.00;99.90;;;;;;5081465;28;20055;-73
2022/11/21 02:37:37;;;;;;;33.53;25.50;;;1.90;99.90;;;;;;5082989;28;20694;-73
2022/11/21 02:40:09;;;;;;;32.67;25.50;;;1.90;99.90;;;;;;5073569;28;20065;-73
2022/11/21 02:43:05;;;;;;;33.22;24.85;;;1.90;99.90;;;;;;5078475;28;20563;-73
2022/11/21 02:45:48;;;;;;;31.05;23.65;;;1.80;99.90;;;;;;5080951;28;20044;-73
2022/11/21 02:48:14;;;;;;;30.05;24.08;;;1.70;99.90;;;;;;5081426;28;20175;-73
2022/11/21 02:50:42;;;;;;;28.77;22.38;;;1.70;99.90;;;;;;5075961;28;20135;-73
2022/11/21 02:53:11;;;;;;;32.67;24.27;;;1.60;99.90;;;;;;5080832;28;20055;-74
2022/11/21 02:55:37;;;;;;;32.13;24.35;;;1.60;99.90;;;;;;5082861;28;20141;-73
2022/11/21 02:58:03;;;;;;;30.67;24.27;;;1.50;99.90;;;;;;5110129;27;20689;-73
2022/11/21 03:00:29;;;;;;;31.17;22.95;;;1.50;99.90;;;;;;5085352;28;20054;-73
2022/11/21 03:02:54;;;;;;;31.25;23.23;;;1.40;99.90;;;;;;5071911;28;20231;-73
2022/11/21 03:05:21;;;;;;;29.48;22.08;;;1.40;99.90;;;;;;5119300;27;20043;-73
2022/11/21 03:07:47;;;;;;;31.02;23.30;;;1.30;99.90;;;;;;5070841;28;20511;-73
2022/11/21 03:10:14;;;;;;;30.77;23.60;;;1.30;99.90;;;;;;5086714;28;20048;-73
2022/11/21 03:12:41;;;;;;;30.87;23.53;;;1.20;99.90;;;;;;5117070;27;20040;-73
2022/11/21 03:15:09;;;;;;;29.23;22.40;;;1.20;99.90;;;;;;5083772;28;20087;-73
2022/11/21 03:17:35;;;;;;;29.38;22.65;;;1.20;99.90;;;;;;5085751;28;20135;-73
2022/11/21 03:20:00;;;;;;;31.13;23.60;;;1.20;99.90;;;;;;5084367;28;20131;-73
2022/11/21 03:22:26;;;;;;;28.60;23.30;;;1.10;99.90;;;;;;5074486;28;20041;-73
2022/11/21 03:24:52;;;;;;;29.02;22.30;;;1.10;99.90;;;;;;5081152;28;20161;-73
2022/11/21 03:27:18;;;;;;;28.60;22.92;;;1.10;99.90;;;;;;5081960;28;20056;-73
2022/11/21 03:29:43;;;;;;;28.63;23.42;;;1.00;99.90;;;;;;5079537;28;20044;-73
2022/11/21 03:32:09;;;;;;;30.33;22.55;;;1.00;99.90;;;;;;5069418;28;21410;-73
2022/11/21 03:34:35;;;;;;;31.05;24.17;;;0.90;99.90;;;;;;5073122;28;20139;-73
2022/11/21 03:37:01;;;;;;;30.52;23.10;;;1.00;99.90;;;;;;5082915;28;20109;-74
2022/11/21 03:39:26;;;;;;;31.85;22.08;;;1.00;99.90;;;;;;5121191;27;20036;-74
2022/11/21 03:41:52;;;;;;;30.70;23.17;;;0.90;99.90;;;;;;5075601;28;20088;-74
2022/11/21 03:44:17;;;;;;;33.63;24.42;;;0.90;99.90;;;;;;5082905;28;20613;-73
2022/11/21 03:46:45;;;;;;;29.90;22.52;;;0.80;99.90;;;;;;5073550;28;20391;-74
2022/11/21 03:49:13;;;;;;;29.58;22.42;;;0.80;99.90;;;;;;5084332;28;20036;-74
2022/11/21 03:51:38;;;;;;;30.80;22.55;;;0.80;99.90;;;;;;5115776;27;20051;-74
2022/11/21 03:54:05;;;;;;;30.98;22.50;;;0.70;99.90;;;;;;5087559;28;20162;-74
2022/11/21 03:56:31;;;;;;;30.75;23.83;;;0.70;99.90;;;;;;5088448;28;20040;-74
2022/11/21 03:58:57;;;;;;;30.40;22.90;;;0.60;99.90;;;;;;5084526;28;20048;-74
2022/11/21 04:01:23;;;;;;;29.52;23.00;;;0.60;99.90;;;;;;5086991;28;20499;-74
2022/11/21 04:03:50;;;;;;;27.95;21.35;;;0.60;99.90;;;;;;5088188;28;20044;-74
2022/11/21 04:06:18;;;;;;;29.20;21.90;;;0.60;99.90;;;;;;5089638;28;20051;-74
2022/11/21 04:08:44;;;;;;;29.83;22.10;;;0.60;99.90;;;;;;5127020;27;20071;-74
2022/11/21 04:11:10;;;;;;;31.55;22.80;;;0.50;99.90;;;;;;5087008;28;20390;-73
2022/11/21 04:13:36;;;;;;;31.40;24.25;;;0.50;99.90;;;;;;5082439;28;20486;-74
2022/11/21 04:16:02;;;;;;;28.75;21.52;;;0.50;99.90;;;;;;5120577;27;20055;-74
2022/11/21 04:18:27;;;;;;;27.83;21.13;;;0.50;99.90;;;;;;5087119;28;20040;-74
2022/11/21 04:20:57;;;;;;;30.65;22.10;;;0.50;99.90;;;;;;5119117;27;20044;-74
2022/11/21 04:23:23;;;;;;;28.60;21.45;;;0.50;99.90;;;;;;5086739;28;20048;-74
2022/11/21 04:25:48;;;;;;;28.70;22.20;;;0.40;99.90;;;;;;5120345;27;20505;-74
2022/11/21 04:28:14;;;;;;;28.05;21.33;;;0.40;99.90;;;;;;5089384;28;20561;-74
2022/11/21 04:30:40;;;;;;;28.08;20.52;;;0.40;99.90;;;;;;5083194;28;20039;-74
2022/11/21 04:33:06;;;;;;;27.42;20.70;;;0.40;99.90;;;;;;5087358;28;20043;-74
2022/11/21 04:35:32;;;;;;;28.95;22.38;;;0.30;99.90;;;;;;5083998;28;20381;-74
2022/11/21 04:37:57;;;;;;;29.05;22.52;;;0.30;99.90;;;;;;5085248;28;20101;-74
2022/11/21 04:40:23;;;;;;;29.95;22.65;;;0.30;99.90;;;;;;5086746;28;20056;-74
2022/11/21 04:42:50;;;;;;;28.42;22.25;;;0.30;99.90;;;;;;5082001;28;20127;-74
2022/11/21 04:45:16;;;;;;;28.83;21.63;;;0.30;99.90;;;;;;5079826;28;20044;-74
2022/11/21 04:47:44;;;;;;;30.48;22.52;;;0.30;99.90;;;;;;5121546;27;20097;-74
2022/11/21 04:50:12;;;;;;;27.15;20.13;;;0.30;99.90;;;;;;5086944;28;20052;-74
2022/11/21 04:52:38;;;;;;;31.30;22.17;;;0.30;99.90;;;;;;5118882;27;20040;-74
2022/11/21 04:55:04;;;;;;;28.35;21.92;;;0.30;99.90;;;;;;5120407;27;20440;-74
2022/11/21 04:57:31;;;;;;;29.27;21.65;;;0.30;99.90;;;;;;5087174;28;20040;-74
2022/11/21 04:59:57;;;;;;;29.33;22.05;;;0.30;99.90;;;;;;5122546;27;20403;-74
2022/11/21 05:02:23;;;;;;;28.10;21.70;;;0.30;99.90;;;;;;5083989;28;20050;-74
2022/11/21 05:04:48;;;;;;;32.10;22.33;;;0.30;99.90;;;;;;5080506;28;20040;-74
2022/11/21 05:07:14;;;;;;;31.08;23.55;;;0.20;99.90;;;;;;5080837;28;20054;-74
2022/11/21 05:09:40;;;;;;;33.35;24.80;;;0.20;99.90;;;;;;5086780;28;20044;-74
2022/11/21 05:14:50;;;;;;;32.78;24.52;;;0.20;99.90;;;;;;5082262;28;20380;-74
2022/11/21 05:17:16;;;;;;;36.42;25.70;;;0.20;99.90;;;;;;5087282;28;20040;-74
2022/11/21 05:19:41;;;;;;;34.13;24.65;;;0.20;99.90;;;;;;5087749;28;20107;-74
2022/11/21 05:22:07;;;;;;;32.17;23.98;;;0.30;99.90;;;;;;5078023;28;20123;-73
2022/11/21 05:24:32;;;;;;;35.63;25.13;;;0.30;99.90;;;;;;5086570;28;20056;-74
2022/11/21 05:26:58;;;;;;;37.25;24.27;;;0.40;99.90;;;;;;5076122;28;20471;-74
2022/11/21 05:29:24;;;;;;;33.05;24.80;;;0.40;99.90;;;;;;5080782;28;20040;-74
2022/11/21 05:31:49;;;;;;;32.72;25.00;;;0.40;99.90;;;;;;5088750;28;20044;-73
2022/11/21 05:34:15;;;;;;;34.25;24.88;;;0.40;99.90;;;;;;5081402;28;20040;-74
2022/11/21 05:36:41;;;;;;;33.28;24.05;;;0.40;99.90;;;;;;5084747;28;20047;-74
2022/11/21 05:39:06;;;;;;;33.45;25.15;;;0.40;99.90;;;;;;5081274;28;20048;-74
2022/11/21 05:41:32;;;;;;;35.15;25.98;;;0.40;99.90;;;;;;5085281;28;20626;-74
2022/11/21 05:43:57;;;;;;;33.47;24.30;;;0.40;99.90;;;;;;5086035;28;20116;-74
2022/11/21 05:46:25;;;;;;;33.60;25.70;;;0.40;99.90;;;;;;5083922;28;20066;-73
2022/11/21 05:48:52;;;;;;;33.53;25.23;;;0.40;99.90;;;;;;5086210;28;20431;-74
2022/11/21 05:51:18;;;;;;;;;;;0.30;99.90;;;;;;5078425;28;20048;-74
2022/11/21 05:53:45;;;;;;;32.30;23.05;;;0.30;99.90;;;;;;5083287;28;19920;-72
2022/11/21 05:56:13;;;;;;;30.98;23.67;;;0.30;99.90;;;;;;5077932;28;20044;-72
2022/11/21 05:58:39;;;;;;;33.72;25.17;;;0.20;99.90;;;;;;5083673;28;20052;-72
2022/11/21 06:01:06;;;;;;;32.72;24.42;;;0.20;99.90;;;;;;5120106;27;20051;-73
2022/11/21 06:03:34;;;;;;;32.80;22.95;;;0.20;99.90;;;;;;5077387;28;20121;-72
2022/11/21 06:06:10;;;;;;;33.20;23.80;;;0.10;99.90;;;;;;5076652;28;20052;-72
2022/11/21 06:08:44;;;;;;;31.33;23.60;;;0.10;99.90;;;;;;5086255;28;20525;-72
2022/11/21 06:11:14;;;;;;;34.25;25.40;;;0.00;99.90;;;;;;5085744;28;20036;-72
2022/11/21 06:13:40;;;;;;;34.85;25.83;;;0.00;99.90;;;;;;5090770;28;20051;-72
2022/11/21 06:16:09;;;;;;;38.85;26.77;;;0.00;99.90;;;;;;5076214;28;20051;-72
2022/11/21 06:18:37;;;;;;;38.80;27.65;;;0.00;99.90;;;;;;5105321;27;20126;-72
2022/11/21 06:21:07;;;;;;;38.00;27.63;;;0.10;99.90;;;;;;5087122;28;20081;-72
2022/11/21 06:23:34;;;;;;;37.67;27.20;;;0.10;99.90;;;;;;5079770;28;20063;-72
2022/11/21 06:26:02;;;;;;;36.40;26.83;;;0.10;99.90;;;;;;5076174;28;20503;-72
2022/11/21 06:28:46;;;;;;;39.78;28.10;;;0.20;99.90;;;;;;5080343;28;20577;-73
2022/11/21 06:31:14;;;;;;;34.45;26.45;;;0.20;99.90;;;;;;5073799;28;20120;-73
2022/11/21 06:33:41;;;;;;;40.08;27.85;;;0.20;99.90;;;;;;5082204;28;20067;-72
2022/11/21 06:36:09;;;;;;;40.17;28.25;;;0.20;99.90;;;;;;5082990;28;20032;-72
2022/11/21 06:38:35;;;;;;;41.05;28.58;;;0.20;99.90;;;;;;5083926;28;20047;-73
2022/11/21 06:41:12;;;;;;;38.03;27.40;;;0.20;99.90;;;;;;5080391;28;20040;-73
2022/11/21 06:43:38;;;;;;;;;;;0.20;99.90;;;;;;5076255;28;20051;-74
2022/11/21 06:46:04;;;;;;;36.10;24.35;;;0.20;99.90;;;;;;5078833;28;19923;-74
2022/11/21 06:48:31;;;;;;;35.75;24.95;;;0.10;99.90;;;;;;5078397;28;20083;-74
2022/11/21 06:51:02;;;;;;;35.13;23.35;;;0.10;99.90;;;;;;5078418;28;20135;-74
2022/11/21 06:53:27;;;;;;;34.15;24.60;;;0.10;99.90;;;;;;5077360;28;20024;-75
2022/11/21 06:55:58;;;;;;;33.05;24.50;;;0.10;99.90;;;;;;5079448;28;20048;-74
2022/11/21 06:58:28;;;;;;;32.25;24.00;;;0.00;99.90;;;;;;5084598;28;20445;-77
2022/11/21 07:00:54;;;;;;;35.25;26.15;;;0.00;99.90;;;;;;5074261;28;20044;-76
2022/11/21 07:03:21;;;;;;;36.30;26.00;;;0.00;99.90;;;;;;5084498;28;20044;-76
2022/11/21 07:05:51;;;;;;;34.03;24.40;;;0.00;99.90;;;;;;5074446;28;20048;-76
2022/11/21 07:08:17;;;;;;;36.28;24.83;;;0.00;99.90;;;;;;5078453;28;20044;-75
2022/11/21 07:10:43;;;;;;;35.50;24.48;;;0.00;99.90;;;;;;5081085;28;20093;-75
2022/11/21 07:13:22;;;;;;;33.28;24.38;;;0.00;99.90;;;;;;5067400;28;20040;-75
2022/11/21 07:15:50;;;;;;;32.53;23.92;;;0.00;99.90;;;;;;5083733;28;20492;-75
2022/11/21 07:18:17;;;;;;;35.40;24.17;;;0.00;99.90;;;;;;5079406;28;20072;-76
2022/11/21 07:20:43;;;;;;;32.17;23.50;;;-0.10;99.90;;;;;;5112753;27;20113;-75
2022/11/21 07:23:09;;;;;;;34.15;24.65;;;-0.10;99.90;;;;;;5084914;28;20317;-75
2022/11/21 07:25:35;;;;;;;34.42;24.35;;;-0.20;99.90;;;;;;5082458;28;20052;-75
2022/11/21 07:28:02;;;;;;;36.10;25.45;;;-0.20;99.90;;;;;;5084356;28;20040;-75
2022/11/21 07:30:28;;;;;;;33.83;24.60;;;-0.20;99.90;;;;;;5082890;28;20511;-76
2022/11/21 07:32:55;;;;;;;34.15;25.58;;;-0.20;99.90;;;;;;5071336;28;20056;-76
2022/11/21 07:35:21;;;;;;;34.83;24.67;;;-0.20;99.90;;;;;;5080941;28;20406;-75
2022/11/21 07:37:47;;;;;;;33.10;24.08;;;-0.20;99.90;;;;;;5080379;28;20033;-75
2022/11/21 07:40:13;;;;;;;34.70;25.60;;;-0.20;99.90;;;;;;5086792;28;20111;-75
2022/11/21 07:42:39;;;;;;;33.45;26.35;;;-0.10;99.90;;;;;;5108736;28;20048;-75
2022/11/21 07:45:05;;;;;;;35.88;26.23;;;-0.10;99.90;;;;;;5078815;28;20089;-76
2022/11/21 07:47:30;;;;;;;36.97;27.02;;;-0.10;99.90;;;;;;5085652;28;20079;-76
2022/11/21 07:49:56;;;;;;;38.95;27.80;;;0.00;99.90;;;;;;5083586;28;20075;-75
2022/11/21 07:52:22;;;;;;;39.13;27.55;;;0.10;99.90;;;;;;5081232;28;20047;-75
2022/11/21 07:54:48;;;;;;;38.85;28.75;;;0.10;99.90;;;;;;5081726;28;20293;-75
2022/11/21 07:57:14;;;;;;;38.95;27.23;;;0.20;99.90;;;;;;5077682;28;20052;-75
2022/11/21 07:59:40;;;;;;;40.10;28.17;;;0.20;99.90;;;;;;5080987;28;20795;-76
2022/11/21 08:02:05;;;;;;;35.33;26.63;;;0.30;99.90;;;;;;5074081;28;20404;-75
2022/11/21 08:04:34;;;;;;;37.25;27.45;;;0.30;99.90;;;;;;5076567;28;20063;-79
2022/11/21 08:07:00;;;;;;;37.90;28.10;;;0.30;99.90;;;;;;5078445;28;20044;-78
2022/11/21 08:09:29;;;;;;;38.85;27.42;;;0.30;99.90;;;;;;5081331;28;20530;-75
2022/11/21 08:11:54;;;;;;;40.72;30.55;;;0.40;99.90;;;;;;5083688;28;20405;-78
2022/11/21 08:14:20;;;;;;;39.33;28.52;;;0.40;99.90;;;;;;5117375;28;20040;-79
2022/11/21 08:16:46;;;;;;;39.15;28.33;;;0.40;99.90;;;;;;5076045;28;20036;-80
2022/11/21 08:19:11;;;;;;;35.72;26.88;;;0.40;99.90;;;;;;5083506;28;20036;-80
2022/11/21 08:21:37;;;;;;;37.60;28.08;;;0.50;99.90;;;;;;5084709;28;20487;-79
2022/11/21 08:24:02;;;;;;;37.90;28.60;;;0.60;99.90;;;;;;5081944;28;20076;-80
2022/11/21 08:26:28;;;;;;;40.40;27.83;;;0.60;99.90;;;;;;5085051;28;20112;-79
2022/11/21 08:28:54;;;;;;;47.83;31.10;;;0.60;99.90;;;;;;5083759;28;20028;-81
2022/11/21 08:31:19;;;;;;;86.47;49.50;;;0.60;99.90;;;;;;5079224;28;20055;-73
2022/11/21 08:33:45;;;;;;;58.95;37.42;;;0.60;99.90;;;;;;5093855;28;20048;-74
2022/11/21 08:36:11;;;;;;;53.25;38.20;;;0.70;99.90;;;;;;5083168;28;20047;-73
2022/11/21 08:38:36;;;;;;;43.38;31.80;;;0.80;99.90;;;;;;5086516;28;20048;-77
2022/11/21 08:43:46;;;;;;;38.65;29.73;;;0.90;99.90;;;;;;5082018;28;20053;-73
2022/11/21 08:46:11;;;;;;;38.95;30.17;;;0.90;99.90;;;;;;5086088;28;20457;-75
2022/11/21 08:48:37;;;;;;;42.38;32.22;;;1.00;99.90;;;;;;5086112;28;20051;-74
2022/11/21 08:51:03;;;;;;;41.78;29.95;;;1.00;99.90;;;;;;5075680;28;20070;-76
2022/11/21 08:53:28;;;;;;;42.05;30.95;;;1.10;99.90;;;;;;5082664;28;20060;-74
2022/11/21 08:55:55;;;;;;;38.33;29.25;;;1.10;99.90;;;;;;5083636;28;21422;-72
2022/11/21 08:58:20;;;;;;;39.22;29.52;;;1.10;99.90;;;;;;5080559;28;20036;-73
2022/11/21 09:00:46;;;;;;;40.72;30.33;;;1.10;99.90;;;;;;5079915;28;20506;-75
2022/11/21 09:03:11;;;;;;;41.67;30.90;;;1.20;99.90;;;;;;5087236;28;20051;-77
2022/11/21 09:05:37;;;;;;;37.88;30.25;;;1.20;99.90;;;;;;5085146;28;20052;-76
2022/11/21 09:08:03;;;;;;;39.67;31.25;;;1.20;99.90;;;;;;5086793;28;20080;-78
2022/11/21 09:10:28;;;;;;;40.15;30.73;;;1.20;99.90;;;;;;5092634;28;20395;-78
2022/11/21 09:12:58;;;;;;;42.20;31.05;;;1.30;99.90;;;;;;5073534;28;20045;-89
2022/11/21 09:18:13;;;;;;;41.08;31.40;;;1.30;99.90;;;;;;5088683;28;20059;-80
2022/11/21 09:20:40;;;;;;;40.05;29.63;;;1.30;99.90;;;;;;5087718;28;20044;-83
2022/11/21 09:23:09;;;;;;;40.28;30.13;;;1.30;99.90;;;;;;5086923;28;20047;-87
2022/11/21 09:25:34;;;;;;;41.75;31.65;;;1.40;99.90;;;;;;5082999;28;20497;-85
2022/11/21 09:28:02;;;;;;;39.90;29.58;;;1.40;99.90;;;;;;5089786;28;20048;-91
2022/11/21 09:30:27;;;;;;;44.67;31.98;;;1.40;99.90;;;;;;5088340;28;20538;-83
2022/11/21 09:32:53;;;;;;;41.95;31.92;;;1.50;99.90;;;;;;5087242;28;20068;-86
2022/11/21 09:35:19;;;;;;;47.05;31.15;;;1.50;99.90;;;;;;5087490;28;20044;-83
2022/11/21 09:37:44;;;;;;;41.95;32.13;;;1.50;99.90;;;;;;5090226;28;20112;-86
2022/11/21 09:40:17;;;;;;;43.13;30.63;;;1.50;99.90;;;;;;5088079;28;20096;-85
2022/11/21 09:42:51;;;;;;;42.83;32.30;;;1.60;99.90;;;;;;5069697;28;20048;-79
2022/11/21 09:45:41;;;;;;;43.45;31.98;;;1.60;99.90;;;;;;5068328;28;20047;-79
2022/11/21 09:48:33;;;;;;;43.65;31.58;;;1.70;99.90;;;;;;5088306;28;20087;-83
2022/11/21 09:51:05;;;;;;;43.25;31.67;;;1.70;99.90;;;;;;5080312;28;20127;-78
2022/11/21 09:53:38;;;;;;;49.00;33.38;;;1.70;99.90;;;;;;5094881;28;20049;-80
2022/11/21 09:56:09;;;;;;;44.88;32.33;;;1.70;99.90;;;;;;5085844;28;20044;-82
2022/11/21 09:58:41;;;;;;;45.22;33.40;;;1.70;99.90;;;;;;5089625;28;20052;-78
2022/11/21 10:01:11;;;;;;;46.88;33.50;;;1.70;99.90;;;;;;5086900;28;20044;-79
2022/11/21 10:03:42;;;;;;;47.53;34.13;;;1.80;99.90;;;;;;5071050;28;20108;-77
2022/11/21 10:06:28;;;;;;;43.85;32.13;;;1.80;99.90;;;;;;5069144;28;20343;-79
2022/11/21 10:09:23;;;;;;;47.63;31.33;;;1.80;99.90;;;;;;5083421;28;20048;-81
2022/11/21 10:12:35;;;;;;;44.65;31.17;;;1.80;99.90;;;;;;5073792;28;20076;-81
2022/11/21 10:15:11;;;;;;;42.38;29.90;;;1.80;99.90;;;;;;5091779;28;20051;-77
2022/11/21 10:17:55;;;;;;;42.85;30.05;;;1.80;99.90;;;;;;5086798;28;20078;-81
2022/11/21 10:20:51;;;;;;;43.22;30.52;;;1.80;99.90;;;;;;5087675;28;20076;-76
2022/11/21 10:23:48;;;;;;;40.03;28.95;;;1.90;99.90;;;;;;5072603;28;20387;-74
2022/11/21 10:26:32;;;;;;;41.13;29.48;;;1.90;99.90;;;;;;5082350;28;20044;-78
2022/11/21 10:29:31;;;;;;;40.70;28.10;;;1.90;99.90;;;;;;5080182;28;20040;-77
2022/11/21 10:32:02;;;;;;;38.10;27.23;;;1.90;99.90;;;;;;5068890;28;20040;-77
2022/11/21 10:34:36;;;;;;;42.38;28.95;;;1.90;99.90;;;;;;5080941;28;20104;-76
2022/11/21 10:37:12;;;;;;;38.30;27.45;;;1.90;99.90;;;;;;5083792;28;20125;-75
2022/11/21 10:39:46;;;;;;;40.00;28.33;;;1.90;99.90;;;;;;5071883;28;20059;-74
2022/11/21 10:42:20;;;;;;;38.38;27.33;;;2.00;99.90;;;;;;5068518;28;20195;-75
2022/11/21 10:47:36;;;;;;;37.25;26.88;;;2.10;99.90;;;;;;5080589;28;20046;-74
2022/11/21 10:50:07;;;;;;;34.00;26.00;;;2.10;99.90;;;;;;5080379;28;20496;-75
2022/11/21 10:52:48;;;;;;;38.22;27.58;;;2.20;99.90;;;;;;5115574;27;20052;-75
2022/11/21 10:55:15;;;;;;;36.90;27.88;;;2.20;99.90;;;;;;5084750;28;20067;-76
2022/11/21 10:57:46;;;;;;;36.85;27.75;;;2.30;99.90;;;;;;5084251;28;20682;-74
2022/11/21 11:00:12;;;;;;;38.58;27.38;;;2.30;99.90;;;;;;5085517;28;20043;-74
2022/11/21 11:02:57;;;;;;;40.17;28.42;;;2.30;99.90;;;;;;5085954;28;20548;-74
2022/11/21 11:05:24;;;;;;;41.05;28.40;;;2.40;99.90;;;;;;5078158;28;20090;-76
2022/11/21 11:08:05;;;;;;;;;;;2.40;99.90;;;;;;5079572;28;20048;-75
2022/11/21 11:10:34;;;;;;;39.30;29.02;;;2.40;99.90;;;;;;5087894;28;19920;-75
2022/11/21 11:16:04;;;;;;;41.45;29.77;;;2.50;99.90;;;;;;5082968;28;20127;-73
2022/11/21 11:18:33;;;;;;;36.72;28.20;;;2.60;99.90;;;;;;5082861;28;20501;-74
2022/11/21 11:21:21;;;;;;;37.70;27.45;;;2.60;99.90;;;;;;5070506;28;20040;-75
2022/11/21 11:23:49;;;;;;;38.58;25.77;;;2.70;99.90;;;;;;5072442;28;20048;-74
2022/11/21 11:26:21;;;;;;;;;;;2.80;99.90;;;;;;5080215;28;20045;-74
2022/11/21 11:28:47;;;;;;;32.95;24.40;;;2.80;99.90;;;;;;5085763;28;20401;-73
2022/11/21 11:31:13;;;;;;;33.35;24.33;;;2.80;99.90;;;;;;5082707;28;20044;-74
2022/11/21 11:33:50;;;;;;;35.75;25.70;;;2.90;99.90;;;;;;5082598;28;20071;-75
2022/11/21 11:36:21;;;;;;;;;;;3.00;99.90;;;;;;5082094;28;20044;-80
2022/11/21 11:38:58;;;;;;;31.13;23.17;;;3.10;99.90;;;;;;5082682;28;19920;-74
2022/11/21 11:47:54;;;;;;;33.10;24.35;;;3.20;99.90;;;;;;5116710;28;20562;-73
2022/11/21 11:50:38;;;;;;;32.28;23.73;;;3.30;99.90;;;;;;5119214;28;20048;-74
2022/11/21 11:53:16;;;;;;;31.75;22.70;;;3.30;99.90;;;;;;5082403;28;20054;-75
2022/11/21 11:56:02;;;;;;;33.15;25.73;;;3.40;99.90;;;;;;5077593;28;20040;-71
2022/11/21 11:58:44;;;;;;;32.22;24.80;;;3.40;99.90;;;;;;5074081;28;20121;-71
2022/11/21 12:01:32;;;;;;;33.58;24.25;;;3.50;99.90;;;;;;5074018;28;20048;-73
2022/11/21 12:04:12;;;;;;;37.17;24.80;;;3.50;99.90;;;;;;5083670;28;20096;-72
2022/11/21 12:06:52;;;;;;;34.22;25.25;;;3.50;99.90;;;;;;5077555;28;20044;-72
2022/11/21 12:09:33;;;;;;;36.13;26.25;;;3.50;99.90;;;;;;5084322;28;20048;-72
2022/11/21 12:12:15;;;;;;;32.67;24.00;;;3.60;99.90;;;;;;5081053;28;20044;-73
2022/11/21 12:18:11;;;;;;;32.38;25.02;;;3.60;99.90;;;;;;5084686;28;20044;-73
2022/11/21 12:20:49;;;;;;;36.05;27.25;;;3.60;99.90;;;;;;5069474;28;20131;-77
2022/11/21 12:23:16;;;;;;;35.30;25.42;;;3.60;99.90;;;;;;5076537;28;20138;-74
2022/11/21 12:26:16;;;;;;;36.63;27.42;;;3.60;99.90;;;;;;5117760;27;20048;-74
2022/11/21 12:29:06;;;;;;;35.28;25.95;;;3.60;99.90;;;;;;5075375;28;20047;-71
2022/11/21 12:31:47;;;;;;;38.38;26.85;;;3.60;99.90;;;;;;5088130;28;20028;-74
2022/11/21 12:34:28;;;;;;;37.38;27.65;;;3.60;99.90;;;;;;5081827;28;20047;-76
2022/11/21 12:37:23;;;;;;;38.80;29.42;;;3.60;99.90;;;;;;5085891;28;20070;-75
2022/11/21 12:39:59;;;;;;;41.28;29.02;;;3.60;99.90;;;;;;5084819;28;20039;-74
2022/11/21 12:45:26;;;;;;;38.20;28.60;;;3.60;99.90;;;;;;5078695;28;20392;-77
2022/11/21 12:56:50;;;;;;;37.15;28.02;;;3.70;99.90;;;;;;5081750;28;20146;-77
2022/11/21 12:59:18;;;;;;;36.47;27.58;;;3.70;99.90;;;;;;5080850;28;20082;-72
2022/11/21 13:01:58;;;;;;;35.83;28.23;;;3.60;99.90;;;;;;5083350;28;20142;-75
2022/11/21 13:04:29;;;;;;;37.97;27.92;;;3.70;99.90;;;;;;5077035;28;20032;-71
2022/11/21 13:06:56;;;;;;;36.08;27.67;;;3.70;99.90;;;;;;5075297;28;20090;-71
2022/11/21 13:09:23;;;;;;;36.30;27.08;;;3.70;99.90;;;;;;5077684;28;20426;-70
2022/11/21 13:12:17;;;;;;;37.30;27.40;;;3.70;99.90;;;;;;5073486;28;20483;-73
2022/11/21 13:15:01;;;;;;;38.60;28.45;;;3.70;99.90;;;;;;5072691;28;20387;-72
2022/11/21 13:17:27;;;;;;;43.40;34.63;;;3.80;99.90;;;;;;5075120;28;20039;-72
2022/11/21 13:20:05;;;;;;;41.28;32.33;;;3.80;99.90;;;;;;5081365;28;20051;-72
2022/11/21 13:22:34;;;;;;;40.28;31.65;;;3.70;99.90;;;;;;5083888;28;20078;-73
2022/11/21 13:25:00;;;;;;;40.10;31.00;;;3.80;99.90;;;;;;5086108;28;20532;-73
2022/11/21 13:27:37;;;;;;;45.27;32.30;;;3.70;99.90;;;;;;5087172;28;20036;-73